createdAt,value
2023-04-13T00:00:50.655Z,0.40
2023-04-13T00:03:19.151Z,0.43
2023-04-13T00:05:48.572Z,0.50
2023-04-13T00:08:17.695Z,0.40
2023-04-13T00:10:45.993Z,0.30
2023-04-13T00:13:15.688Z,0.60
2023-04-13T00:15:44.530Z,0.50
2023-04-13T00:18:12.934Z,0.50
2023-04-13T00:20:43.435Z,0.40
2023-04-13T00:23:11.717Z,0.50
2023-04-13T00:25:39.659Z,0.53
2023-04-13T00:28:08.143Z,0.50
2023-04-13T00:30:37.379Z,0.50
2023-04-13T00:33:05.848Z,0.40
2023-04-13T00:35:34.236Z,0.40
2023-04-13T00:38:02.995Z,0.50
2023-04-13T00:40:31.219Z,0.50
2023-04-13T00:43:00.610Z,0.50
2023-04-13T00:45:28.638Z,0.50
2023-04-13T00:48:00.055Z,0.50
2023-04-13T00:50:28.296Z,0.40
2023-04-13T00:52:56.807Z,0.50
2023-04-13T00:55:25.106Z,0.50
2023-04-13T00:57:53.523Z,0.60
2023-04-13T01:00:24.629Z,0.50
2023-04-13T01:02:53.059Z,0.57
2023-04-13T01:05:23.058Z,0.50
2023-04-13T01:07:58.747Z,0.50
2023-04-13T01:10:31.926Z,0.50
2023-04-13T01:13:10.417Z,0.50
2023-04-13T01:15:41.646Z,0.60
2023-04-13T01:18:13.461Z,0.50
2023-04-13T01:20:46.454Z,0.40
2023-04-13T01:23:25.713Z,0.50
2023-04-13T01:25:58.509Z,0.40
2023-04-13T01:28:29.051Z,0.40
2023-04-13T01:31:00.257Z,0.40
2023-04-13T01:33:30.592Z,0.50
2023-04-13T01:36:00.717Z,0.60
2023-04-13T01:38:28.670Z,0.50
2023-04-13T01:40:57.229Z,0.50
2023-04-13T01:43:27.072Z,0.50
2023-04-13T01:46:00.883Z,0.50
2023-04-13T01:48:34.235Z,0.60
2023-04-13T01:51:07.328Z,0.50
2023-04-13T01:53:39.249Z,0.50
2023-04-13T01:56:07.851Z,0.50
2023-04-13T01:58:38.667Z,0.50
2023-04-13T02:01:07.895Z,0.53
2023-04-13T02:03:38.235Z,0.50
2023-04-13T02:06:07.452Z,0.50
2023-04-13T02:08:37.110Z,0.40
2023-04-13T02:11:05.297Z,0.63
2023-04-13T02:13:33.181Z,0.50
2023-04-13T02:16:02.983Z,0.50
2023-04-13T02:18:30.985Z,0.50
2023-04-13T02:21:08.108Z,0.57
2023-04-13T02:23:37.325Z,0.60
2023-04-13T02:26:07.841Z,0.60
2023-04-13T02:28:35.815Z,0.67
2023-04-13T02:31:05.804Z,0.77
2023-04-13T02:33:34.101Z,0.63
2023-04-13T02:36:03.877Z,0.50
2023-04-13T02:38:32.310Z,0.40
2023-04-13T02:41:01.085Z,0.77
2023-04-13T02:43:29.937Z,0.50
2023-04-13T02:45:58.253Z,0.50
2023-04-13T02:48:27.580Z,0.50
2023-04-13T02:50:55.808Z,0.60
2023-04-13T02:53:24.614Z,0.50
2023-04-13T02:55:53.700Z,0.60
2023-04-13T02:58:23.832Z,0.60
2023-04-13T03:00:51.919Z,0.47
2023-04-13T03:03:20.498Z,0.60
2023-04-13T03:05:50.582Z,0.70
2023-04-13T03:08:18.755Z,0.60
2023-04-13T03:10:46.638Z,0.60
2023-04-13T03:13:14.514Z,0.60
2023-04-13T03:15:42.423Z,0.40
2023-04-13T03:18:10.276Z,0.60
2023-04-13T03:20:38.167Z,0.60
2023-04-13T03:23:07.501Z,0.70
2023-04-13T03:25:35.508Z,0.80
2023-04-13T03:28:03.530Z,0.50
2023-04-13T03:30:31.467Z,0.70
2023-04-13T03:32:59.411Z,0.60
2023-04-13T03:35:27.548Z,0.60
2023-04-13T03:37:56.067Z,0.60
2023-04-13T03:40:25.334Z,0.90
2023-04-13T03:42:53.219Z,0.50
2023-04-13T03:45:21.176Z,0.80
2023-04-13T03:47:49.120Z,0.60
2023-04-13T03:50:17.174Z,0.60
2023-04-13T03:52:45.520Z,0.63
2023-04-13T03:55:14.555Z,0.60
2023-04-13T03:57:43.888Z,0.50
2023-04-13T04:00:14.428Z,0.60
2023-04-13T04:02:43.033Z,0.60
2023-04-13T04:05:11.484Z,0.60
2023-04-13T04:07:39.356Z,0.50
2023-04-13T04:10:08.692Z,0.60
2023-04-13T04:12:36.776Z,0.60
2023-04-13T04:15:07.198Z,0.70
2023-04-13T04:17:35.781Z,0.50
2023-04-13T04:20:06.731Z,0.50
2023-04-13T04:22:36.607Z,0.70
2023-04-13T04:25:04.783Z,0.63
2023-04-13T04:27:37.893Z,0.60
2023-04-13T04:30:10.883Z,0.60
2023-04-13T04:32:40.560Z,0.60
2023-04-13T04:35:09.749Z,0.57
2023-04-13T04:37:38.840Z,0.63
2023-04-13T04:40:09.322Z,0.50
2023-04-13T04:42:38.332Z,0.40
2023-04-13T04:45:08.793Z,0.60
2023-04-13T04:47:42.030Z,0.60
2023-04-13T04:50:11.093Z,0.60
2023-04-13T04:52:39.081Z,0.60
2023-04-13T04:55:07.848Z,0.70
2023-04-13T04:57:35.767Z,0.80
2023-04-13T05:00:09.287Z,0.90
2023-04-13T05:02:38.665Z,0.60
2023-04-13T05:05:07.409Z,1.30
2023-04-13T05:07:35.433Z,0.70
2023-04-13T05:10:04.267Z,0.70
2023-04-13T05:12:32.125Z,1.10
2023-04-13T05:14:59.998Z,1.40
2023-04-13T05:17:28.721Z,0.90
2023-04-13T05:19:58.018Z,0.70
2023-04-13T05:22:25.905Z,1.10
2023-04-13T05:24:53.784Z,0.80
2023-04-13T05:27:21.666Z,0.90
2023-04-13T05:29:49.586Z,1.00
2023-04-13T05:32:17.597Z,0.80
2023-04-13T05:34:45.540Z,0.93
2023-04-13T05:37:15.519Z,1.00
2023-04-13T05:39:43.491Z,0.80
2023-04-13T05:42:11.581Z,1.13
2023-04-13T05:44:39.485Z,1.17
2023-04-13T05:47:07.374Z,0.90
2023-04-13T05:49:35.601Z,1.00
2023-04-13T05:52:04.240Z,1.30
2023-04-13T05:54:33.507Z,1.10
2023-04-13T05:57:01.366Z,0.80
2023-04-13T05:59:29.281Z,0.90
2023-04-13T06:01:57.334Z,1.10
2023-04-13T06:04:27.308Z,0.90
2023-04-13T06:06:55.923Z,1.13
2023-04-13T06:09:24.029Z,0.97
2023-04-13T06:11:54.334Z,0.80
2023-04-13T06:14:23.454Z,0.80
2023-04-13T06:16:51.517Z,0.90
2023-04-13T06:19:19.424Z,0.90
2023-04-13T06:21:47.348Z,0.77
2023-04-13T06:24:15.372Z,0.97
2023-04-13T06:26:43.513Z,1.00
2023-04-13T06:29:13.382Z,0.80
2023-04-13T06:31:41.315Z,1.00
2023-04-13T06:34:09.562Z,0.77
2023-04-13T06:36:37.903Z,0.70
2023-04-13T06:39:06.940Z,0.77
2023-04-13T06:41:34.878Z,0.63
2023-04-13T06:44:02.719Z,1.27
2023-04-13T06:46:32.129Z,1.00
2023-04-13T06:49:00.437Z,0.70
2023-04-13T06:51:28.591Z,0.90
2023-04-13T06:53:56.454Z,3.10
2023-04-13T06:56:24.382Z,0.90
2023-04-13T06:58:52.366Z,1.10
2023-04-13T07:01:20.804Z,0.70
2023-04-13T07:03:50.188Z,1.00
2023-04-13T07:06:18.553Z,0.80
2023-04-13T07:08:46.550Z,0.70
2023-04-13T07:11:14.516Z,0.70
2023-04-13T07:13:42.547Z,0.97
2023-04-13T07:16:11.839Z,0.80
2023-04-13T07:18:39.891Z,0.87
2023-04-13T07:21:09.500Z,0.90
2023-04-13T07:23:37.504Z,0.93
2023-04-13T07:26:06.217Z,1.10
2023-04-13T07:28:34.214Z,2.70
2023-04-13T07:31:03.482Z,1.10
2023-04-13T07:33:31.739Z,1.10
2023-04-13T07:35:59.746Z,0.90
2023-04-13T07:38:29.042Z,0.73
2023-04-13T07:40:56.939Z,0.90
2023-04-13T07:43:26.220Z,1.00
2023-04-13T07:45:54.144Z,1.20
2023-04-13T07:48:22.072Z,1.07
2023-04-13T07:50:50.001Z,1.10
2023-04-13T07:53:17.941Z,0.90
2023-04-13T07:55:47.235Z,0.83
2023-04-13T07:58:15.210Z,1.17
2023-04-13T08:00:43.173Z,1.00
2023-04-13T08:03:11.425Z,0.63
2023-04-13T08:05:39.392Z,0.90
2023-04-13T08:08:07.417Z,0.60
2023-04-13T08:10:36.220Z,0.70
2023-04-13T08:13:05.488Z,0.80
2023-04-13T08:15:33.358Z,1.03
2023-04-13T08:18:01.348Z,0.77
2023-04-13T08:20:30.700Z,0.60
2023-04-13T08:22:59.179Z,0.70
2023-04-13T08:25:28.402Z,0.97
2023-04-13T08:27:56.747Z,1.00
2023-04-13T08:30:25.975Z,1.23
2023-04-13T08:32:53.857Z,0.80
2023-04-13T08:35:22.195Z,5.30
2023-04-13T08:37:50.127Z,1.03
2023-04-13T08:40:19.983Z,0.90
2023-04-13T08:42:48.480Z,0.93
2023-04-13T08:45:17.190Z,0.87
2023-04-13T08:47:46.803Z,0.80
2023-04-13T08:50:16.274Z,1.00
2023-04-13T08:52:44.123Z,0.80
2023-04-13T08:55:12.670Z,0.90
2023-04-13T08:57:41.613Z,1.00
2023-04-13T09:00:14.485Z,1.63
2023-04-13T09:03:00.232Z,1.13
2023-04-13T09:05:35.393Z,1.10
2023-04-13T09:08:07.834Z,2.50
2023-04-13T09:10:36.089Z,1.60
2023-04-13T09:13:04.119Z,0.97
2023-04-13T09:15:32.832Z,1.00
2023-04-13T09:18:09.433Z,1.10
2023-04-13T09:20:39.679Z,0.93
2023-04-13T09:23:15.938Z,0.87
2023-04-13T09:25:45.367Z,1.00
2023-04-13T09:28:20.217Z,1.37
2023-04-13T09:30:48.659Z,1.00
2023-04-13T09:33:18.017Z,1.13
2023-04-13T09:35:47.311Z,1.30
2023-04-13T09:38:16.847Z,1.00
2023-04-13T09:40:54.109Z,0.90
2023-04-13T09:43:22.116Z,0.80
2023-04-13T09:45:50.628Z,1.03
2023-04-13T09:48:20.527Z,1.20
2023-04-13T09:51:01.036Z,1.10
2023-04-13T09:53:30.086Z,0.90
2023-04-13T09:55:59.085Z,1.50
2023-04-13T09:58:27.368Z,0.80
2023-04-13T10:00:55.453Z,0.80
2023-04-13T10:03:23.816Z,1.00
2023-04-13T10:05:59.604Z,1.10
2023-04-13T10:11:02.380Z,0.70
2023-04-13T10:13:36.818Z,1.23
2023-04-13T10:16:41.948Z,1.33
2023-04-13T10:19:13.431Z,0.90
2023-04-13T10:21:45.548Z,1.00
2023-04-13T10:24:15.141Z,1.20
2023-04-13T10:26:45.005Z,0.90
2023-04-13T10:29:14.488Z,0.90
2023-04-13T10:31:46.837Z,0.90
2023-04-13T10:34:26.220Z,0.93
2023-04-13T10:36:56.169Z,1.13
2023-04-13T10:39:29.961Z,0.80
2023-04-13T10:42:02.316Z,1.30
2023-04-13T10:44:41.224Z,1.00
2023-04-13T10:47:09.510Z,0.97
2023-04-13T10:49:37.693Z,0.93
2023-04-13T10:52:05.697Z,1.03
2023-04-13T10:54:36.065Z,1.10
2023-04-13T10:57:06.548Z,0.80
2023-04-13T10:59:56.122Z,0.70
2023-04-13T11:02:27.026Z,1.00
2023-04-13T11:04:55.291Z,1.10
2023-04-13T11:07:26.021Z,0.80
2023-04-13T11:10:02.748Z,1.00
2023-04-13T11:12:31.435Z,1.27
2023-04-13T11:15:00.067Z,1.00
2023-04-13T11:17:28.268Z,1.20
2023-04-13T11:19:57.637Z,1.30
2023-04-13T11:22:27.969Z,1.00
2023-04-13T11:25:07.699Z,1.33
2023-04-13T11:27:35.810Z,1.30
2023-04-13T11:30:06.405Z,1.70
2023-04-13T11:32:35.158Z,1.20
2023-04-13T11:35:08.157Z,1.20
2023-04-13T11:37:40.157Z,1.10
2023-04-13T11:40:13.772Z,0.90
2023-04-13T11:42:43.881Z,1.07
2023-04-13T11:45:12.705Z,1.13
2023-04-13T11:47:41.293Z,1.00
2023-04-13T11:50:11.038Z,0.97
2023-04-13T11:52:40.426Z,1.33
2023-04-13T11:55:22.448Z,0.80
2023-04-13T11:57:52.269Z,1.13
2023-04-13T12:00:24.424Z,1.20
2023-04-13T12:03:02.037Z,0.97
2023-04-13T12:05:34.264Z,0.97
2023-04-13T12:08:03.429Z,0.93
2023-04-13T12:10:41.215Z,1.10
2023-04-13T12:16:04.953Z,1.10
2023-04-13T12:18:44.254Z,1.20
2023-04-13T12:21:16.818Z,1.10
2023-04-13T12:23:53.904Z,0.93
2023-04-13T12:27:10.300Z,1.40
2023-04-13T12:29:13.697Z,1.20
2023-04-13T12:31:44.286Z,1.00
2023-04-13T12:34:12.389Z,1.23
2023-04-13T12:36:40.301Z,1.00
2023-04-13T12:39:08.408Z,1.10
2023-04-13T12:41:37.915Z,1.20
2023-04-13T12:44:06.058Z,1.40
2023-04-13T12:46:33.944Z,1.60
2023-04-13T12:49:02.142Z,1.00
2023-04-13T12:51:31.485Z,1.20
2023-04-13T12:53:59.411Z,2.00
2023-04-13T12:56:27.469Z,1.50
2023-04-13T12:58:56.734Z,1.13
2023-04-13T13:01:24.700Z,0.93
2023-04-13T13:03:52.817Z,1.10
2023-04-13T13:06:21.034Z,0.90
2023-04-13T13:08:48.919Z,0.90
2023-04-13T13:11:16.813Z,1.83
2023-04-13T13:13:44.735Z,1.27
2023-04-13T13:16:14.516Z,1.10
2023-04-13T13:18:50.426Z,0.90
2023-04-13T13:21:20.042Z,0.73
2023-04-13T13:23:48.052Z,0.70
2023-04-13T13:28:47.122Z,0.83
2023-04-13T13:31:16.381Z,1.87
2023-04-13T13:33:44.410Z,1.00
2023-04-13T13:36:13.937Z,0.60
2023-04-13T13:38:42.734Z,0.60
2023-04-13T13:41:10.947Z,0.70
2023-04-13T13:43:38.994Z,0.60
2023-04-13T13:46:07.114Z,0.57
2023-04-13T13:48:36.500Z,0.70
2023-04-13T13:51:06.902Z,0.73
2023-04-13T13:53:35.455Z,0.87
2023-04-13T13:56:04.495Z,0.77
2023-04-13T13:58:32.447Z,0.90
2023-04-13T14:01:00.435Z,0.90
2023-04-13T14:03:28.607Z,1.10
2023-04-13T14:05:57.941Z,0.77
2023-04-13T14:08:25.961Z,0.80
2023-04-13T14:10:53.826Z,1.57
2023-04-13T14:13:21.802Z,4.27
2023-04-13T14:15:49.792Z,1.57
2023-04-13T14:18:17.783Z,1.20
2023-04-13T14:20:45.969Z,0.80
2023-04-13T14:23:15.309Z,0.70
2023-04-13T14:25:43.287Z,0.80
2023-04-13T14:28:11.655Z,1.10
2023-04-13T14:30:40.718Z,1.03
2023-04-13T14:33:08.715Z,1.10
2023-04-13T14:35:38.724Z,0.87
2023-04-13T14:38:08.201Z,1.07
2023-04-13T14:40:37.448Z,1.03
2023-04-13T14:43:05.413Z,1.20
2023-04-13T14:45:33.391Z,1.10
2023-04-13T14:48:01.532Z,1.20
2023-04-13T14:50:29.874Z,1.37
2023-04-13T14:52:58.507Z,1.30
2023-04-13T14:55:26.443Z,3.67
2023-04-13T14:57:58.255Z,1.10
2023-04-13T15:00:38.681Z,0.90
2023-04-13T15:03:08.146Z,0.87
2023-04-13T15:05:40.077Z,0.90
2023-04-13T15:08:09.088Z,0.90
2023-04-13T15:10:36.967Z,1.10
2023-04-13T15:13:08.370Z,0.83
2023-04-13T15:15:37.913Z,0.80
2023-04-13T15:18:06.420Z,0.80
2023-04-13T15:20:34.586Z,0.83
2023-04-13T15:23:02.540Z,0.70
2023-04-13T15:25:30.880Z,0.60
2023-04-13T15:27:59.476Z,0.70
2023-04-13T15:30:30.962Z,0.50
2023-04-13T15:33:02.346Z,0.97
2023-04-13T15:35:31.482Z,2.60
2023-04-13T15:38:02.223Z,1.00
2023-04-13T15:40:32.630Z,0.70
2023-04-13T15:43:00.535Z,0.67
2023-04-13T15:45:29.833Z,0.63
2023-04-13T15:47:57.976Z,0.50
2023-04-13T15:50:26.152Z,0.70
2023-04-13T15:52:54.122Z,0.50
2023-04-13T15:55:22.403Z,0.77
2023-04-13T15:57:53.567Z,0.70
2023-04-13T16:00:21.890Z,0.70
2023-04-13T16:02:51.354Z,0.60
2023-04-13T16:05:19.954Z,0.60
2023-04-13T16:07:47.884Z,0.70
2023-04-13T16:10:16.628Z,4.23
2023-04-13T16:12:45.407Z,4.37
2023-04-13T16:15:13.740Z,1.07
2023-04-13T16:17:43.997Z,0.80
2023-04-13T16:20:21.182Z,0.80
2023-04-13T16:22:53.226Z,0.97
2023-04-13T16:25:21.313Z,0.80
2023-04-13T16:27:49.358Z,1.10
2023-04-13T16:30:20.844Z,0.67
2023-04-13T16:32:50.041Z,1.77
2023-04-13T16:35:19.495Z,1.33
2023-04-13T16:37:47.452Z,1.17
2023-04-13T16:40:16.483Z,1.40
2023-04-13T16:42:44.336Z,0.77
2023-04-13T16:45:14.909Z,2.33
2023-04-13T16:47:43.528Z,5.23
2023-04-13T16:50:12.197Z,1.83
2023-04-13T16:52:41.582Z,0.80
2023-04-13T16:55:14.985Z,0.80
2023-04-13T16:57:43.735Z,0.80
2023-04-13T17:00:12.909Z,0.90
2023-04-13T17:02:42.599Z,0.80
2023-04-13T17:05:12.551Z,0.77
2023-04-13T17:07:43.124Z,8.20
2023-04-13T17:10:12.657Z,1.77
2023-04-13T17:12:40.844Z,0.77
2023-04-13T17:15:10.445Z,0.83
2023-04-13T17:17:38.834Z,0.90
2023-04-13T17:20:08.293Z,1.20
2023-04-13T17:22:36.235Z,1.03
2023-04-13T17:25:06.013Z,0.70
2023-04-13T17:27:33.858Z,0.80
2023-04-13T17:30:01.793Z,0.93
2023-04-13T17:32:29.921Z,0.83
2023-04-13T17:34:58.583Z,0.90
2023-04-13T17:37:26.626Z,1.00
2023-04-13T17:39:54.568Z,0.90
2023-04-13T17:42:23.932Z,0.83
2023-04-13T17:44:51.832Z,0.90
2023-04-13T17:47:19.754Z,4.73
2023-04-13T17:49:47.700Z,5.23
2023-04-13T17:52:15.698Z,1.80
2023-04-13T17:54:43.862Z,1.00
2023-04-13T17:57:11.747Z,0.80
2023-04-13T17:59:41.712Z,0.80
2023-04-13T18:02:09.808Z,0.90
2023-04-13T18:04:37.872Z,0.73
2023-04-13T18:07:06.303Z,0.90
2023-04-13T18:09:34.275Z,1.10
2023-04-13T18:12:02.198Z,0.90
2023-04-13T18:14:30.083Z,0.80
2023-04-13T18:16:59.297Z,1.00
2023-04-13T18:19:28.250Z,2.47
2023-04-13T18:21:56.192Z,2.43
2023-04-13T18:24:24.097Z,3.63
2023-04-13T18:26:52.617Z,5.13
2023-04-13T18:29:20.730Z,6.00
2023-04-13T18:31:48.728Z,3.70
2023-04-13T18:34:18.093Z,3.80
2023-04-13T18:36:46.209Z,2.73
2023-04-13T18:39:14.227Z,3.30
2023-04-13T18:41:42.618Z,7.73
2023-04-13T18:44:10.724Z,5.53
2023-04-13T18:46:38.732Z,6.37
2023-04-13T18:49:06.676Z,4.70
2023-04-13T18:51:35.978Z,4.77
2023-04-13T18:54:04.694Z,3.83
2023-04-13T18:56:32.643Z,2.43
2023-04-13T18:59:00.605Z,2.17
2023-04-13T19:01:28.529Z,2.97
2023-04-13T19:03:56.863Z,1.90
2023-04-13T19:06:24.900Z,2.00
2023-04-13T19:08:54.153Z,1.17
2023-04-13T19:11:27.381Z,0.80
2023-04-13T19:13:55.415Z,3.13
2023-04-13T19:16:23.677Z,2.27
2023-04-13T19:18:51.608Z,1.50
2023-04-13T19:21:23.579Z,1.17
2023-04-13T19:23:51.498Z,0.90
2023-04-13T19:26:20.698Z,0.77
2023-04-13T19:28:48.624Z,0.80
2023-04-13T19:31:16.938Z,0.80
2023-04-13T19:33:46.093Z,0.63
2023-04-13T19:36:14.082Z,0.63
2023-04-13T19:38:44.854Z,2.30
2023-04-13T19:41:13.447Z,2.83
2023-04-13T19:43:42.674Z,2.50
2023-04-13T19:46:10.714Z,1.73
2023-04-13T19:48:38.766Z,0.97
2023-04-13T19:51:06.748Z,3.00
2023-04-13T19:53:36.158Z,1.53
2023-04-13T19:56:05.402Z,1.70
2023-04-13T19:58:34.027Z,2.30
2023-04-13T20:01:06.207Z,1.70
2023-04-13T20:03:34.420Z,1.10
2023-04-13T20:06:02.842Z,1.40
2023-04-13T20:08:30.860Z,1.43
2023-04-13T20:10:59.912Z,1.57
2023-04-13T20:13:27.959Z,1.40
2023-04-13T20:15:55.925Z,1.30
2023-04-13T20:18:25.263Z,1.70
2023-04-13T20:20:53.162Z,2.40
2023-04-13T20:23:21.426Z,2.00
2023-04-13T20:25:49.334Z,2.07
2023-04-13T20:28:17.711Z,2.40
2023-04-13T20:30:45.697Z,2.67
2023-04-13T20:33:13.669Z,3.27
2023-04-13T20:35:42.978Z,3.10
2023-04-13T20:38:13.757Z,1.73
2023-04-13T20:40:45.590Z,1.67
2023-04-13T20:43:15.533Z,1.77
2023-04-13T20:45:45.222Z,2.27
2023-04-13T20:50:47.760Z,2.43
2023-04-13T20:53:17.332Z,1.80
2023-04-13T20:55:45.341Z,1.93
2023-04-13T20:58:13.197Z,2.30
2023-04-13T21:00:42.887Z,2.77
2023-04-13T21:03:11.259Z,2.23
2023-04-13T21:05:39.292Z,2.37
2023-04-13T21:08:08.983Z,3.47
2023-04-13T21:10:36.854Z,2.30
2023-04-13T21:13:05.976Z,2.10
2023-04-13T21:15:33.940Z,2.07
2023-04-13T21:18:01.905Z,2.10
2023-04-13T21:20:29.821Z,2.20
2023-04-13T21:22:57.669Z,3.00
2023-04-13T21:25:27.454Z,2.50
2023-04-13T21:27:55.645Z,3.00
2023-04-13T21:30:23.557Z,3.03
2023-04-13T21:32:51.744Z,3.03
2023-04-13T21:35:19.892Z,3.37
2023-04-13T21:37:47.783Z,2.60
2023-04-13T21:40:16.186Z,2.47
2023-04-13T21:42:45.528Z,3.30
2023-04-13T21:45:13.461Z,3.70
2023-04-13T21:47:41.437Z,1.60
2023-04-13T21:50:10.174Z,2.10
2023-04-13T21:52:38.053Z,1.67
2023-04-13T21:55:06.696Z,1.60
2023-04-13T21:57:34.550Z,1.93
2023-04-13T22:00:06.181Z,1.50
2023-04-13T22:02:34.583Z,1.80
2023-04-13T22:05:02.592Z,1.50
2023-04-13T22:07:41.662Z,1.50
2023-04-13T22:10:11.740Z,1.67
2023-04-13T22:12:39.648Z,1.77
2023-04-13T22:15:09.754Z,1.47
2023-04-13T22:17:37.769Z,1.30
2023-04-13T22:20:06.483Z,1.20
2023-04-13T22:22:34.367Z,1.20
2023-04-13T22:25:02.224Z,1.53
2023-04-13T22:27:30.131Z,1.10
2023-04-13T22:29:58.120Z,1.20
2023-04-13T22:32:28.427Z,1.10
2023-04-13T22:34:56.354Z,1.30
2023-04-13T22:37:24.360Z,1.10
2023-04-13T22:39:52.274Z,1.07
2023-04-13T22:42:20.389Z,1.13
2023-04-13T22:44:48.271Z,1.30
2023-04-13T22:47:16.121Z,1.10
2023-04-13T22:49:45.370Z,1.00
2023-04-13T22:52:13.672Z,1.00
2023-04-13T22:54:41.520Z,1.00
2023-04-13T22:57:09.427Z,1.13
2023-04-13T22:59:37.331Z,1.30
2023-04-13T23:02:05.550Z,1.30
2023-04-13T23:04:33.742Z,1.20
2023-04-13T23:07:03.138Z,1.80
2023-04-13T23:09:31.124Z,2.20
2023-04-13T23:11:58.987Z,1.70
2023-04-13T23:14:26.883Z,2.00
2023-04-13T23:16:54.798Z,2.50
2023-04-13T23:19:22.698Z,2.90
2023-04-13T23:21:50.624Z,3.20
2023-04-13T23:24:19.903Z,2.67
2023-04-13T23:26:47.863Z,3.60
2023-04-13T23:29:16.444Z,3.33
2023-04-13T23:31:44.392Z,2.93
2023-04-13T23:34:12.368Z,3.13
2023-04-13T23:36:41.085Z,3.57
2023-04-13T23:39:09.675Z,3.70
2023-04-13T23:41:38.917Z,3.20
2023-04-13T23:44:07.213Z,3.30
2023-04-13T23:46:35.142Z,3.30
2023-04-13T23:49:03.020Z,3.47
2023-04-13T23:51:31.187Z,3.37
2023-04-13T23:53:59.092Z,3.50
2023-04-13T23:56:27.256Z,4.00
2023-04-13T23:58:56.530Z,3.70
